Nearby METAR Reports

 

YSRI - Richmond (aus-Af, Australia
Distance from station: WSW 35km
Updated: 19/01/2022 12:00
Mostly cloudy
Mostly cloudy
 Wind from SSW
Wind: SSW 15 km/h
Temperature: 20°C
Dew Point: 19°C
Humidity: 94%
Barometer: 1020 hPa
Clouds: Mostly cloudy
Visibility: 10 km
Cloud details: Partly cloudy 701 m
Mostly cloudy 975 m
Mostly cloudy 1372 m
2022/01/19 01:00 YSRI 190100Z AUTO 20008KT 9999 // SCT023 BKN032 BKN045 20/19 Q1020
YSSY - Sydney Intl Airp, Australia
Distance from station: S 47km
Updated: 19/01/2022 12:00
Light rain, Mostly cloudy
Light rain, Mostly cloudy
 Wind from SSE
Wind: SSE 33 km/h
Temperature: 22°C
Dew Point: 18°C
Humidity: 78%
Barometer: 1020 hPa
Summary: Light rain
Clouds: Mostly cloudy
Visibility: 10 km
Cloud details: Few Clouds 914 m
Mostly cloudy 3658 m
2022/01/19 01:00 YSSY 190100Z 16018KT 9999 -RA FEW030 BKN120 22/18 Q1020 RERA
 
YWLM - Williamtown Arp, Australia
Distance from station: NE 104km
Updated: 19/01/2022 12:00
Light rain, Showers, Overcast
Light rain, Showers, Overcast
 Wind from SSE
Wind: SSE 28 km/h
Temperature: 21°C
Dew Point: 20°C
Humidity: 94%
Barometer: 1018 hPa
Summary: Light rain, Showers
Clouds: Overcast
Visibility: 10 km
Cloud details: Partly cloudy 244 m
Partly cloudy 762 m
Overcast 1372 m
2022/01/19 01:00 YWLM 190100Z 16015KT 9999 -SHRA SCT008 SCT025 OVC045 21/20 Q1018
YSNW - Nowra (aus-Navy), Australia
Distance from station: SSW 168km
Updated: 19/01/2022 12:00
Rain showers, Mostly cloudy
Rain showers, Mostly cloudy
 Wind from S
Wind: S 22 km/h
Temperature: 18°C
Dew Point: 18°C
Humidity: 100%
Barometer: 1022 hPa
Summary: Rain Showers
Clouds: Mostly cloudy
Visibility: 4 km
Cloud details: Partly cloudy 396 m
Mostly cloudy 823 m
2022/01/19 01:00 YSNW 190100Z 18012KT 4000 SHRA SCT013 BKN027 18/18 Q1022
 
YMDG - Mudgee Arpt, Australia
Distance from station: NW 177km
Updated: 19/01/2022 12:12
Overcast
Overcast
 Wind from SE
Wind: SE 28 km/h, Gust: 50 km/h
Temperature: 20°C
Dew Point: 16°C
Humidity: 78%
Barometer: 1019 hPa
Clouds: Overcast
Visibility: 10 km
Cloud details: Partly cloudy 732 m
Partly cloudy 1920 m
Overcast 2256 m
2022/01/19 01:12 YMDG 190112Z AUTO 13015G27KT 9999 // SCT024 SCT063 OVC074 20/16 Q1019
YTRE - Taree Airport, Australia
Distance from station: NE 224km
Updated: 19/01/2022 12:12
Overcast
Overcast
 Wind from SW
Wind: SW 9 km/h
Temperature: 21°C
Dew Point: 21°C
Humidity: 100%
Barometer: 1016 hPa
Clouds: Overcast
Visibility: 5 km
Cloud details: Mostly cloudy 366 m
Overcast 549 m
2022/01/19 01:12 YTRE 190112Z AUTO 23005KT 5000 // BKN012 OVC018 21/21 Q1016
 
YSCB - Canberra (civ/Mi, Australia
Distance from station: SW 265km
Updated: 19/01/2022 12:00
Partly cloudy
Partly cloudy
 Wind from ESE
Wind: ESE 31 km/h
Temperature: 21°C
Dew Point: 11°C
Humidity: 53%
Barometer: 1023 hPa
Clouds: Partly cloudy
Visibility: 10 km
Cloud details: Partly cloudy 1128 m
2022/01/19 01:00 YSCB 190100Z AUTO 12017KT 9999 // SCT037 21/11 Q1023
YSTW - Tamworth Airport, Australia
Distance from station: N 275km
Updated: 19/01/2022 12:00
Overcast
Overcast
 Wind from SSE
Wind: SSE 19 km/h
Temperature: 20°C
Dew Point: 20°C
Humidity: 100%
Barometer: 1017 hPa
Clouds: Overcast
Visibility: 2 km
Cloud details: Partly cloudy 914 m
Mostly cloudy 1158 m
Overcast 1372 m
2022/01/19 01:00 YSTW 190100Z AUTO 16010KT 2400 // SCT030 BKN038 OVC045 20/20 Q1017
 
YSDU - Dubbo, Australia
Distance from station: WNW 280km
Updated: 19/01/2022 12:00
Overcast
Overcast
 Wind from E
Wind: E 22 km/h
Temperature: 20°C
Dew Point: 18°C
Humidity: 88%
Barometer: 1018 hPa
Clouds: Overcast
Visibility: 10 km
Cloud details: Mostly cloudy 1768 m
Mostly cloudy 2377 m
Overcast 2682 m
2022/01/19 01:00 YSDU 190100Z AUTO 10012KT 9999 // BKN058 BKN078 OVC088 20/18 Q1018
YPMQ - Port Macquarie, Australia
Distance from station: NE 284km
Updated: 19/01/2022 12:00
Overcast
Overcast
 Wind from SSW
Wind: SSW 17 km/h
Temperature: 22°C
Dew Point: 22°C
Humidity: 100%
Barometer: 1015 hPa
Clouds: Overcast
Visibility: 3 km
Cloud details: Overcast 183 m
2022/01/19 01:00 YPMQ 190100Z AUTO 21009KT 2600 // OVC006 22/22 Q1015
 
YCBB - Coonabarabran, Australia
Distance from station: NW 300km
Updated: 19/01/2022 12:00
Light rain, Overcast
Light rain, Overcast
 Wind from SSE
Wind: SSE 15 km/h
Temperature: 17°C
Dew Point: 17°C
Humidity: 100%
Barometer: 1018 hPa
Summary: Light rain
Clouds: Overcast
Visibility: 0 km
Cloud details: Overcast 30 m
2022/01/19 01:00 YCBB 190100Z AUTO 16008KT 0200 -RA OVC001 17/17 Q1018